AUA21V LOWW-EDDF
Flight info
| Callsign | AUA21V |
|---|---|
| Flight time | 0h 56m |
| Altitude | 30000 |
| Route | LUGEM2B/16 LUGEM DCT SUBEN T161 DEBHI DEBHI1B |
| Aircraft | A320/M-SDE3FGHIRWY/LB1 |
Departure
| Time | 2026-05-04 17:45 |
|---|---|
| Airport | Vienna International Airport (LOWW) |
Arrival
| Time | 2026-05-04 18:41 |
|---|---|
| Airport | Frankfurt Main Airport (EDDF) |
| Time | Latitude | Longitude | Altitude | Speed | Heading |
|---|---|---|---|---|---|
| 2026-05-04 17:20 | 48.11873 | 16.56817 | 620 ft | 0 kts | 207° |
| 2026-05-04 17:20 | 48.11880 | 16.56822 | 619 ft | 0 kts | 206° |
| 2026-05-04 17:38 | 48.11888 | 16.56828 | 609 ft | 4 kts | 206° |
| 2026-05-04 17:38 | 48.11912 | 16.56846 | 620 ft | 4 kts | 206° |
| 2026-05-04 17:38 | 48.11935 | 16.56859 | 625 ft | 4 kts | 171° |
| 2026-05-04 17:39 | 48.11956 | 16.56832 | 622 ft | 0 kts | 116° |
| 2026-05-04 17:41 | 48.11951 | 16.56847 | 622 ft | 5 kts | 116° |
| 2026-05-04 17:41 | 48.11922 | 16.56938 | 609 ft | 14 kts | 116° |
| 2026-05-04 17:41 | 48.11868 | 16.57101 | 618 ft | 19 kts | 116° |
| 2026-05-04 17:41 | 48.11843 | 16.57259 | 620 ft | 14 kts | 102° |
| 2026-05-04 17:42 | 48.11914 | 16.57300 | 618 ft | 13 kts | 343° |
| 2026-05-04 17:42 | 48.11987 | 16.57327 | 620 ft | 11 kts | 57° |
| 2026-05-04 17:42 | 48.12010 | 16.57436 | 615 ft | 11 kts | 73° |
| 2026-05-04 17:42 | 48.12002 | 16.57558 | 616 ft | 9 kts | 104° |
| 2026-05-04 17:43 | 48.11998 | 16.57581 | 612 ft | 0 kts | 104° |
| 2026-05-04 17:43 | 48.11996 | 16.57593 | 609 ft | 7 kts | 105° |
| 2026-05-04 17:43 | 48.11968 | 16.57747 | 617 ft | 20 kts | 104° |
| 2026-05-04 17:43 | 48.11904 | 16.57849 | 614 ft | 12 kts | 166° |
| 2026-05-04 17:44 | 48.11873 | 16.57862 | 614 ft | 4 kts | 164° |
| 2026-05-04 17:44 | 48.11650 | 16.57958 | 616 ft | 70 kts | 164° |
| 2026-05-04 17:44 | 48.10967 | 16.58247 | 621 ft | 132 kts | 164° |
| 2026-05-04 17:44 | 48.09979 | 16.58655 | 995 ft | 147 kts | 163° |
| 2026-05-04 17:45 | 48.09002 | 16.59059 | 1686 ft | 148 kts | 166° |
| 2026-05-04 17:45 | 48.07969 | 16.59496 | 2185 ft | 164 kts | 166° |
| 2026-05-04 17:45 | 48.06807 | 16.59966 | 2639 ft | 182 kts | 171° |
| 2026-05-04 17:45 | 48.05497 | 16.59755 | 2933 ft | 207 kts | 206° |
| 2026-05-04 17:46 | 48.04379 | 16.58218 | 3439 ft | 231 kts | 227° |
| 2026-05-04 17:46 | 48.03304 | 16.56313 | 4119 ft | 245 kts | 229° |
| 2026-05-04 17:46 | 48.02555 | 16.54015 | 5056 ft | 254 kts | 256° |
| 2026-05-04 17:46 | 48.02627 | 16.51339 | 5941 ft | 265 kts | 276° |
| 2026-05-04 17:47 | 48.02797 | 16.48578 | 6773 ft | 269 kts | 270° |
| 2026-05-04 17:47 | 48.02816 | 16.45751 | 7566 ft | 274 kts | 266° |
| 2026-05-04 17:47 | 48.02786 | 16.42913 | 7895 ft | 270 kts | 267° |
| 2026-05-04 17:47 | 48.02741 | 16.40083 | 8686 ft | 275 kts | 265° |
| 2026-05-04 17:48 | 48.02691 | 16.37207 | 9569 ft | 280 kts | 268° |
| 2026-05-04 17:48 | 48.02938 | 16.34276 | 10293 ft | 291 kts | 277° |
| 2026-05-04 17:48 | 48.03318 | 16.31183 | 10584 ft | 315 kts | 279° |
| 2026-05-04 17:48 | 48.03755 | 16.27848 | 10852 ft | 337 kts | 278° |
| 2026-05-04 17:49 | 48.04224 | 16.24355 | 11417 ft | 348 kts | 279° |
| 2026-05-04 17:49 | 48.04698 | 16.20830 | 12134 ft | 353 kts | 279° |
| 2026-05-04 17:49 | 48.05179 | 16.17214 | 12874 ft | 357 kts | 279° |
| 2026-05-04 17:49 | 48.05658 | 16.13557 | 13642 ft | 360 kts | 278° |
| 2026-05-04 17:50 | 48.06139 | 16.09862 | 14300 ft | 364 kts | 278° |
| 2026-05-04 17:50 | 48.06621 | 16.06132 | 15008 ft | 366 kts | 278° |
| 2026-05-04 17:50 | 48.07106 | 16.02376 | 15672 ft | 369 kts | 278° |
| 2026-05-04 17:50 | 48.07591 | 15.98589 | 16342 ft | 372 kts | 278° |
| 2026-05-04 17:51 | 48.08080 | 15.94776 | 17013 ft | 375 kts | 279° |
| 2026-05-04 17:51 | 48.08611 | 15.90935 | 17623 ft | 379 kts | 280° |
| 2026-05-04 17:51 | 48.09177 | 15.87066 | 18266 ft | 382 kts | 280° |
| 2026-05-04 17:51 | 48.09762 | 15.83171 | 18828 ft | 385 kts | 281° |
| 2026-05-04 17:52 | 48.10359 | 15.79243 | 19420 ft | 388 kts | 281° |
| 2026-05-04 17:52 | 48.10753 | 15.76631 | 19821 ft | 389 kts | 281° |
| 2026-05-04 17:52 | 48.11346 | 15.72662 | 20396 ft | 393 kts | 281° |
| 2026-05-04 17:52 | 48.11938 | 15.68655 | 20940 ft | 395 kts | 281° |
| 2026-05-04 17:53 | 48.12528 | 15.64617 | 21464 ft | 399 kts | 281° |
| 2026-05-04 17:53 | 48.13121 | 15.60547 | 22002 ft | 402 kts | 281° |
| 2026-05-04 17:53 | 48.13908 | 15.55111 | 22704 ft | 405 kts | 281° |
| 2026-05-04 17:53 | 48.14502 | 15.50978 | 23185 ft | 408 kts | 282° |
| 2026-05-04 17:54 | 48.14909 | 15.48156 | 23480 ft | 411 kts | 282° |
| 2026-05-04 17:54 | 48.15515 | 15.43955 | 23866 ft | 414 kts | 282° |
| 2026-05-04 17:54 | 48.16121 | 15.39728 | 24268 ft | 417 kts | 282° |
| 2026-05-04 17:54 | 48.16727 | 15.35465 | 24655 ft | 419 kts | 282° |
| 2026-05-04 17:55 | 48.17336 | 15.31181 | 25046 ft | 421 kts | 282° |
| 2026-05-04 17:55 | 48.17948 | 15.26877 | 25431 ft | 423 kts | 282° |
| 2026-05-04 17:55 | 48.18562 | 15.22553 | 25809 ft | 426 kts | 282° |
| 2026-05-04 17:55 | 48.19179 | 15.18202 | 26178 ft | 428 kts | 282° |
| 2026-05-04 17:56 | 48.19799 | 15.13830 | 26539 ft | 430 kts | 282° |
| 2026-05-04 17:56 | 48.20419 | 15.09449 | 26918 ft | 431 kts | 281° |
| 2026-05-04 17:56 | 48.21039 | 15.05036 | 27284 ft | 433 kts | 281° |
| 2026-05-04 17:56 | 48.21650 | 15.00671 | 27628 ft | 434 kts | 281° |
| 2026-05-04 17:57 | 48.22269 | 14.96224 | 27964 ft | 436 kts | 281° |
| 2026-05-04 17:57 | 48.22887 | 14.91767 | 28286 ft | 438 kts | 281° |
| 2026-05-04 17:57 | 48.23504 | 14.87282 | 28590 ft | 440 kts | 281° |
| 2026-05-04 17:57 | 48.24123 | 14.82777 | 28894 ft | 442 kts | 281° |
| 2026-05-04 17:58 | 48.24743 | 14.78257 | 29175 ft | 443 kts | 281° |
| 2026-05-04 17:58 | 48.25365 | 14.73718 | 29452 ft | 445 kts | 281° |
| 2026-05-04 17:58 | 48.25988 | 14.69153 | 29710 ft | 447 kts | 281° |
| 2026-05-04 17:58 | 48.26615 | 14.64562 | 29947 ft | 449 kts | 281° |
| 2026-05-04 17:59 | 48.27240 | 14.59969 | 30244 ft | 448 kts | 281° |
| 2026-05-04 17:59 | 48.27861 | 14.55390 | 30537 ft | 447 kts | 281° |
| 2026-05-04 17:59 | 48.29095 | 14.46255 | 31143 ft | 445 kts | 280° |
| 2026-05-04 18:00 | 48.29709 | 14.41690 | 31451 ft | 444 kts | 280° |
| 2026-05-04 18:00 | 48.30318 | 14.37143 | 31751 ft | 444 kts | 280° |
| 2026-05-04 18:00 | 48.30922 | 14.32607 | 32065 ft | 442 kts | 280° |
| 2026-05-04 18:00 | 48.31524 | 14.28081 | 32381 ft | 442 kts | 279° |
| 2026-05-04 18:01 | 48.32123 | 14.23560 | 32676 ft | 441 kts | 279° |
| 2026-05-04 18:01 | 48.32721 | 14.19040 | 32980 ft | 441 kts | 279° |
| 2026-05-04 18:01 | 48.33308 | 14.14582 | 33284 ft | 440 kts | 279° |
| 2026-05-04 18:02 | 48.34493 | 14.05571 | 33891 ft | 439 kts | 279° |
| 2026-05-04 18:02 | 48.35080 | 14.01078 | 34160 ft | 438 kts | 279° |
| 2026-05-04 18:02 | 48.35661 | 13.96592 | 34434 ft | 437 kts | 279° |
| 2026-05-04 18:02 | 48.36240 | 13.92105 | 34713 ft | 436 kts | 279° |
| 2026-05-04 18:03 | 48.36816 | 13.87640 | 34992 ft | 435 kts | 279° |
| 2026-05-04 18:03 | 48.37392 | 13.83183 | 35256 ft | 434 kts | 279° |
| 2026-05-04 18:03 | 48.37965 | 13.78735 | 35496 ft | 433 kts | 279° |
| 2026-05-04 18:03 | 48.38536 | 13.74291 | 35746 ft | 432 kts | 279° |
| 2026-05-04 18:04 | 48.39103 | 13.69856 | 35880 ft | 432 kts | 279° |
| 2026-05-04 18:04 | 48.39666 | 13.65419 | 35906 ft | 432 kts | 279° |
| 2026-05-04 18:05 | 48.41346 | 13.52111 | 35903 ft | 431 kts | 279° |
| 2026-05-04 18:05 | 48.42455 | 13.43244 | 35846 ft | 431 kts | 278° |
| 2026-05-04 18:05 | 48.43009 | 13.38814 | 35586 ft | 430 kts | 278° |
| 2026-05-04 18:06 | 48.44584 | 13.30110 | 35086 ft | 434 kts | 289° |
| 2026-05-04 18:06 | 48.45702 | 13.25893 | 34839 ft | 435 kts | 289° |
| 2026-05-04 18:06 | 48.46823 | 13.21649 | 34601 ft | 435 kts | 289° |
| 2026-05-04 18:07 | 48.47942 | 13.17398 | 34353 ft | 436 kts | 289° |
| 2026-05-04 18:07 | 48.49055 | 13.13151 | 34114 ft | 437 kts | 289° |
| 2026-05-04 18:07 | 48.50174 | 13.08876 | 33910 ft | 438 kts | 289° |
| 2026-05-04 18:07 | 48.51290 | 13.04611 | 33914 ft | 438 kts | 288° |
| 2026-05-04 18:08 | 48.53512 | 12.96097 | 33911 ft | 440 kts | 288° |
| 2026-05-04 18:08 | 48.55759 | 12.87499 | 33911 ft | 440 kts | 288° |
| 2026-05-04 18:09 | 48.60243 | 12.70239 | 33926 ft | 440 kts | 288° |
| 2026-05-04 18:10 | 48.62437 | 12.61702 | 33911 ft | 438 kts | 288° |
| 2026-05-04 18:10 | 48.64642 | 12.53109 | 33928 ft | 438 kts | 288° |
| 2026-05-04 18:11 | 48.66847 | 12.44509 | 33915 ft | 438 kts | 288° |
| 2026-05-04 18:11 | 48.69038 | 12.35906 | 33936 ft | 438 kts | 288° |
| 2026-05-04 18:12 | 48.71223 | 12.27292 | 33934 ft | 438 kts | 288° |
| 2026-05-04 18:12 | 48.73397 | 12.18658 | 33933 ft | 439 kts | 288° |
| 2026-05-04 18:13 | 48.75257 | 12.09886 | 33942 ft | 435 kts | 277° |
| 2026-05-04 18:14 | 48.76732 | 11.96317 | 33938 ft | 435 kts | 276° |
| 2026-05-04 18:14 | 48.77696 | 11.87263 | 33937 ft | 435 kts | 276° |
| 2026-05-04 18:15 | 48.79617 | 11.69184 | 33920 ft | 436 kts | 276° |
| 2026-05-04 18:16 | 48.80569 | 11.60097 | 33921 ft | 436 kts | 276° |
| 2026-05-04 18:16 | 48.81516 | 11.51018 | 33921 ft | 436 kts | 276° |
| 2026-05-04 18:17 | 48.82948 | 11.42093 | 33934 ft | 442 kts | 294° |
| 2026-05-04 18:17 | 48.84676 | 11.38194 | 33927 ft | 448 kts | 307° |
| 2026-05-04 18:18 | 48.90818 | 11.27410 | 33645 ft | 451 kts | 308° |
| 2026-05-04 18:18 | 48.92879 | 11.23818 | 33381 ft | 450 kts | 308° |
| 2026-05-04 18:18 | 48.94933 | 11.20221 | 33109 ft | 450 kts | 308° |
| 2026-05-04 18:18 | 48.96981 | 11.16612 | 32836 ft | 451 kts | 308° |
| 2026-05-04 18:19 | 49.01070 | 11.09363 | 32336 ft | 450 kts | 307° |
| 2026-05-04 18:19 | 49.03108 | 11.05742 | 32085 ft | 450 kts | 307° |
| 2026-05-04 18:19 | 49.05127 | 11.02148 | 31828 ft | 451 kts | 307° |
| 2026-05-04 18:20 | 49.07168 | 10.98516 | 31595 ft | 451 kts | 307° |
| 2026-05-04 18:20 | 49.09214 | 10.94880 | 31340 ft | 451 kts | 307° |
| 2026-05-04 18:20 | 49.11258 | 10.91243 | 31076 ft | 452 kts | 307° |
| 2026-05-04 18:20 | 49.13303 | 10.87604 | 30838 ft | 452 kts | 307° |
| 2026-05-04 18:21 | 49.15348 | 10.83957 | 30615 ft | 452 kts | 307° |
| 2026-05-04 18:21 | 49.17390 | 10.80310 | 30369 ft | 452 kts | 307° |
| 2026-05-04 18:21 | 49.19430 | 10.76657 | 30120 ft | 452 kts | 307° |
| 2026-05-04 18:21 | 49.21462 | 10.73006 | 29690 ft | 451 kts | 307° |
| 2026-05-04 18:22 | 49.23502 | 10.69334 | 28465 ft | 454 kts | 307° |
| 2026-05-04 18:22 | 49.25529 | 10.65686 | 27796 ft | 446 kts | 307° |
| 2026-05-04 18:22 | 49.27526 | 10.62098 | 27056 ft | 441 kts | 307° |
| 2026-05-04 18:22 | 49.29503 | 10.58540 | 26341 ft | 437 kts | 307° |
| 2026-05-04 18:23 | 49.31459 | 10.55009 | 25631 ft | 433 kts | 307° |
| 2026-05-04 18:23 | 49.33397 | 10.51499 | 24946 ft | 430 kts | 307° |
| 2026-05-04 18:23 | 49.35321 | 10.48012 | 24265 ft | 427 kts | 307° |
| 2026-05-04 18:23 | 49.37101 | 10.44407 | 23661 ft | 422 kts | 301° |
| 2026-05-04 18:24 | 49.38785 | 10.40702 | 23240 ft | 424 kts | 302° |
| 2026-05-04 18:24 | 49.40451 | 10.37048 | 22817 ft | 422 kts | 302° |
| 2026-05-04 18:24 | 49.42132 | 10.33367 | 22385 ft | 420 kts | 302° |
| 2026-05-04 18:24 | 49.43803 | 10.29706 | 21980 ft | 417 kts | 302° |
| 2026-05-04 18:25 | 49.45467 | 10.26057 | 21548 ft | 415 kts | 302° |
| 2026-05-04 18:25 | 49.47114 | 10.22429 | 21124 ft | 412 kts | 302° |
| 2026-05-04 18:25 | 49.48747 | 10.18821 | 20709 ft | 410 kts | 302° |
| 2026-05-04 18:25 | 49.50370 | 10.15233 | 20299 ft | 407 kts | 302° |
| 2026-05-04 18:26 | 49.51982 | 10.11669 | 19880 ft | 405 kts | 302° |
| 2026-05-04 18:26 | 49.53589 | 10.08122 | 19474 ft | 403 kts | 302° |
| 2026-05-04 18:26 | 49.55185 | 10.04595 | 19056 ft | 400 kts | 302° |
| 2026-05-04 18:26 | 49.56767 | 10.01088 | 18651 ft | 398 kts | 302° |
| 2026-05-04 18:27 | 49.58339 | 9.97600 | 18250 ft | 395 kts | 302° |
| 2026-05-04 18:27 | 49.59901 | 9.94132 | 17813 ft | 393 kts | 302° |
| 2026-05-04 18:27 | 49.61454 | 9.90673 | 17419 ft | 391 kts | 302° |
| 2026-05-04 18:27 | 49.62994 | 9.87237 | 17012 ft | 389 kts | 302° |
| 2026-05-04 18:28 | 49.64524 | 9.83818 | 16620 ft | 386 kts | 302° |
| 2026-05-04 18:28 | 49.66212 | 9.80598 | 16331 ft | 387 kts | 311° |
| 2026-05-04 18:28 | 49.68084 | 9.77622 | 16078 ft | 386 kts | 311° |
| 2026-05-04 18:28 | 49.69944 | 9.74650 | 15829 ft | 384 kts | 311° |
| 2026-05-04 18:29 | 49.71797 | 9.71680 | 15580 ft | 383 kts | 311° |
| 2026-05-04 18:29 | 49.73639 | 9.68724 | 15334 ft | 381 kts | 311° |
| 2026-05-04 18:29 | 49.75477 | 9.65774 | 15085 ft | 380 kts | 311° |
| 2026-05-04 18:29 | 49.77308 | 9.62838 | 14842 ft | 378 kts | 311° |
| 2026-05-04 18:30 | 49.80936 | 9.57022 | 14153 ft | 372 kts | 311° |
| 2026-05-04 18:30 | 49.82728 | 9.54147 | 13601 ft | 370 kts | 311° |
| 2026-05-04 18:30 | 49.84510 | 9.51279 | 13001 ft | 368 kts | 311° |
| 2026-05-04 18:31 | 49.86270 | 9.48435 | 12446 ft | 364 kts | 311° |
| 2026-05-04 18:31 | 49.88017 | 9.45610 | 11867 ft | 361 kts | 311° |
| 2026-05-04 18:31 | 49.89751 | 9.42810 | 11275 ft | 359 kts | 311° |
| 2026-05-04 18:31 | 49.91473 | 9.40032 | 10771 ft | 355 kts | 311° |
| 2026-05-04 18:32 | 49.93156 | 9.37315 | 10657 ft | 348 kts | 311° |
| 2026-05-04 18:32 | 49.94841 | 9.34588 | 10578 ft | 351 kts | 311° |
| 2026-05-04 18:32 | 49.96530 | 9.31850 | 10432 ft | 351 kts | 311° |
| 2026-05-04 18:32 | 49.98218 | 9.29109 | 10282 ft | 350 kts | 310° |
| 2026-05-04 18:33 | 49.99895 | 9.26379 | 10123 ft | 349 kts | 310° |
| 2026-05-04 18:33 | 50.01572 | 9.23646 | 9937 ft | 349 kts | 310° |
| 2026-05-04 18:33 | 50.03253 | 9.20900 | 9235 ft | 350 kts | 310° |
| 2026-05-04 18:33 | 50.04921 | 9.18175 | 8658 ft | 346 kts | 311° |
| 2026-05-04 18:34 | 50.06572 | 9.15480 | 8101 ft | 343 kts | 311° |
| 2026-05-04 18:34 | 50.08211 | 9.12799 | 7520 ft | 340 kts | 311° |
| 2026-05-04 18:34 | 50.09828 | 9.10151 | 7150 ft | 332 kts | 311° |
| 2026-05-04 18:34 | 50.11378 | 9.07618 | 6747 ft | 318 kts | 311° |
| 2026-05-04 18:35 | 50.12818 | 9.04973 | 5933 ft | 318 kts | 298° |
| 2026-05-04 18:35 | 50.13532 | 9.01850 | 5371 ft | 298 kts | 275° |
| 2026-05-04 18:35 | 50.13429 | 8.98789 | 5213 ft | 269 kts | 255° |
| 2026-05-04 18:35 | 50.12885 | 8.96104 | 5146 ft | 252 kts | 248° |
| 2026-05-04 18:36 | 50.12478 | 8.94443 | 5060 ft | 244 kts | 248° |
| 2026-05-04 18:36 | 50.11693 | 8.91186 | 4699 ft | 237 kts | 249° |
| 2026-05-04 18:36 | 50.11129 | 8.88790 | 4377 ft | 234 kts | 249° |
| 2026-05-04 18:36 | 50.10576 | 8.86430 | 4075 ft | 231 kts | 249° |
| 2026-05-04 18:37 | 50.10209 | 8.84870 | 3865 ft | 229 kts | 249° |
| 2026-05-04 18:37 | 50.09486 | 8.81802 | 3471 ft | 226 kts | 250° |
| 2026-05-04 18:37 | 50.08954 | 8.79545 | 3174 ft | 217 kts | 250° |
| 2026-05-04 18:37 | 50.08446 | 8.77393 | 2892 ft | 207 kts | 250° |
| 2026-05-04 18:38 | 50.08115 | 8.75990 | 2731 ft | 200 kts | 250° |
| 2026-05-04 18:38 | 50.07650 | 8.74025 | 2451 ft | 186 kts | 251° |
| 2026-05-04 18:38 | 50.07229 | 8.72242 | 2273 ft | 163 kts | 251° |
| 2026-05-04 18:38 | 50.06928 | 8.70640 | 2070 ft | 148 kts | 262° |
| 2026-05-04 18:39 | 50.06799 | 8.69089 | 1785 ft | 141 kts | 264° |
| 2026-05-04 18:39 | 50.06594 | 8.67600 | 1529 ft | 140 kts | 256° |
| 2026-05-04 18:39 | 50.06304 | 8.66179 | 1346 ft | 139 kts | 254° |
| 2026-05-04 18:39 | 50.05973 | 8.64771 | 1183 ft | 139 kts | 251° |
| 2026-05-04 18:40 | 50.05623 | 8.63380 | 1021 ft | 137 kts | 252° |
| 2026-05-04 18:40 | 50.05297 | 8.61990 | 842 ft | 136 kts | 254° |
| 2026-05-04 18:40 | 50.04971 | 8.60604 | 684 ft | 136 kts | 252° |
| 2026-05-04 18:40 | 50.04639 | 8.59234 | 508 ft | 135 kts | 251° |
| 2026-05-04 18:41 | 50.04317 | 8.57879 | 367 ft | 126 kts | 252° |
| 2026-05-04 18:41 | 50.04067 | 8.56828 | 364 ft | 76 kts | 249° |
| 2026-05-04 18:41 | 50.03956 | 8.56339 | 353 ft | 36 kts | 252° |
| 2026-05-04 18:41 | 50.03882 | 8.55987 | 351 ft | 25 kts | 261° |
| 2026-05-04 18:42 | 50.03900 | 8.55710 | 353 ft | 26 kts | 284° |
| 2026-05-04 18:42 | 50.03933 | 8.55632 | 355 ft | 0 kts | 335° |
| 2026-05-04 18:42 | 50.03944 | 8.55631 | 348 ft | 6 kts | 358° |
| 2026-05-04 18:43 | 50.03991 | 8.55711 | 351 ft | 16 kts | 69° |
| 2026-05-04 18:43 | 50.04039 | 8.55913 | 355 ft | 21 kts | 70° |
| 2026-05-04 18:43 | 50.04099 | 8.56162 | 355 ft | 23 kts | 70° |
| 2026-05-04 18:43 | 50.04172 | 8.56280 | 356 ft | 14 kts | 346° |
| 2026-05-04 18:44 | 50.04272 | 8.56220 | 356 ft | 16 kts | 330° |
| 2026-05-04 18:44 | 50.04291 | 8.56139 | 355 ft | 12 kts | 269° |
| 2026-05-04 18:44 | 50.04379 | 8.56035 | 360 ft | 13 kts | 340° |
| 2026-05-04 18:44 | 50.04446 | 8.56088 | 356 ft | 10 kts | 68° |
| 2026-05-04 18:45 | 50.04460 | 8.56181 | 358 ft | 8 kts | 106° |
| 2026-05-04 18:45 | 50.04415 | 8.56215 | 359 ft | 6 kts | 159° |
| 2026-05-04 18:45 | 50.04403 | 8.56222 | 360 ft | 0 kts | 160° |